createdAt,value
2017-04-15T00:00:02.138Z,55.80
2017-04-15T00:01:01.980Z,55.50
2017-04-15T00:02:01.075Z,55.40
2017-04-15T00:03:00.126Z,55.30
2017-04-15T00:03:59.210Z,55.30
2017-04-15T00:04:58.287Z,55.40
2017-04-15T00:05:58.240Z,55.20
2017-04-15T00:06:57.318Z,55.30
2017-04-15T00:07:56.402Z,55.30
2017-04-15T00:08:55.499Z,55.20
2017-04-15T00:09:54.604Z,55.40
2017-04-15T00:10:53.668Z,55.40
2017-04-15T00:11:52.750Z,55.40
2017-04-15T00:12:51.832Z,55.40
2017-04-15T00:13:50.898Z,55.40
2017-04-15T00:14:49.967Z,55.30
2017-04-15T00:15:49.035Z,55.20
2017-04-15T00:16:49.114Z,55.30
2017-04-15T00:17:48.175Z,55.40
2017-04-15T00:18:47.253Z,55.40
2017-04-15T00:19:46.346Z,55.40
2017-04-15T00:20:45.430Z,55.30
2017-04-15T00:21:44.494Z,55.40
2017-04-15T00:22:43.598Z,55.50
2017-04-15T00:23:42.719Z,55.40
2017-04-15T00:24:41.777Z,55.50
2017-04-15T00:25:40.851Z,55.60
2017-04-15T00:26:39.942Z,55.80
2017-04-15T00:27:39.251Z,55.80
2017-04-15T00:28:38.319Z,55.90
2017-04-15T00:29:37.378Z,56.00
2017-04-15T00:30:36.447Z,56.20
2017-04-15T00:31:35.599Z,56.30
2017-04-15T00:32:34.669Z,57.40
2017-04-15T00:33:33.778Z,57.60
2017-04-15T00:34:32.855Z,57.70
2017-04-15T00:35:31.910Z,57.70
2017-04-15T00:36:30.983Z,57.80
2017-04-15T00:37:30.040Z,57.80
2017-04-15T00:38:29.270Z,57.90
2017-04-15T00:39:28.359Z,58.00
2017-04-15T00:40:27.419Z,58.20
2017-04-15T00:41:26.478Z,58.30
2017-04-15T00:42:25.714Z,58.40
2017-04-15T00:43:24.767Z,58.60
2017-04-15T00:44:23.853Z,58.70
2017-04-15T00:45:22.911Z,58.80
2017-04-15T00:46:22.711Z,58.80
2017-04-15T00:47:21.758Z,59.00
2017-04-15T00:48:20.831Z,59.00
2017-04-15T00:49:20.135Z,59.00
2017-04-15T00:50:19.199Z,59.10
2017-04-15T00:51:18.270Z,59.20
2017-04-15T00:52:17.338Z,59.30
2017-04-15T00:53:17.177Z,59.30
2017-04-15T00:54:16.239Z,59.50
2017-04-15T00:55:15.318Z,59.60
2017-04-15T00:56:14.395Z,60.20
2017-04-15T00:57:14.205Z,59.70
2017-04-15T00:58:13.278Z,59.80
2017-04-15T00:59:13.085Z,59.90
2017-04-15T01:00:12.542Z,59.90
2017-04-15T01:01:11.582Z,60.00
2017-04-15T01:02:10.634Z,60.10
2017-04-15T01:03:09.706Z,60.10
2017-04-15T01:04:08.778Z,60.40
2017-04-15T01:05:07.855Z,60.40
2017-04-15T01:06:06.938Z,60.60
2017-04-15T01:07:06.006Z,60.60
2017-04-15T01:08:05.065Z,60.70
2017-04-15T01:09:04.239Z,60.70
2017-04-15T01:10:03.346Z,60.80
2017-04-15T01:11:02.572Z,60.80
2017-04-15T01:12:01.637Z,60.90
2017-04-15T01:13:00.702Z,61.10
2017-04-15T01:14:00.047Z,61.00
2017-04-15T01:14:59.863Z,61.10
2017-04-15T01:15:58.927Z,61.20
2017-04-15T01:16:58.155Z,61.30
2017-04-15T01:17:57.210Z,61.40
2017-04-15T01:18:56.270Z,61.30
2017-04-15T01:19:55.323Z,61.40
2017-04-15T01:20:54.389Z,61.50
2017-04-15T01:21:53.620Z,61.50
2017-04-15T01:22:52.666Z,61.60
2017-04-15T01:23:51.770Z,61.60
2017-04-15T01:24:50.837Z,61.70
2017-04-15T01:25:49.897Z,61.80
2017-04-15T01:26:49.703Z,61.90
2017-04-15T01:27:48.907Z,62.00
2017-04-15T01:28:47.978Z,63.00
2017-04-15T01:29:47.766Z,62.00
2017-04-15T01:30:46.883Z,62.10
2017-04-15T01:31:45.942Z,62.20
2017-04-15T01:32:44.997Z,62.20
2017-04-15T01:33:44.076Z,62.10
2017-04-15T01:34:43.906Z,62.10
2017-04-15T01:35:42.978Z,62.20
2017-04-15T01:36:42.082Z,62.20
2017-04-15T01:37:41.136Z,62.30
2017-04-15T01:38:40.195Z,62.30
2017-04-15T01:39:39.270Z,62.30
2017-04-15T01:40:38.350Z,62.30
2017-04-15T01:41:37.430Z,62.30
2017-04-15T01:42:36.481Z,62.80
2017-04-15T01:43:35.569Z,62.20
2017-04-15T01:44:34.662Z,62.20
2017-04-15T01:45:33.746Z,62.10
2017-04-15T01:46:32.821Z,62.10
2017-04-15T01:47:31.884Z,62.30
2017-04-15T01:48:31.672Z,62.20
2017-04-15T01:49:30.749Z,62.30
2017-04-15T01:50:30.064Z,62.30
2017-04-15T01:51:29.110Z,62.40
2017-04-15T01:52:28.162Z,62.40
2017-04-15T01:53:27.963Z,62.30
2017-04-15T01:54:27.756Z,62.30
2017-04-15T01:55:26.826Z,62.50
2017-04-15T01:56:25.910Z,62.50
2017-04-15T01:57:24.974Z,62.50
2017-04-15T01:58:24.067Z,62.50
2017-04-15T01:59:23.126Z,62.40
2017-04-15T02:00:22.185Z,62.40
2017-04-15T02:01:21.630Z,62.30
2017-04-15T02:02:20.862Z,62.40
2017-04-15T02:03:20.658Z,62.30
2017-04-15T02:04:19.724Z,62.40
2017-04-15T02:05:18.778Z,62.30
2017-04-15T02:06:17.842Z,62.40
2017-04-15T02:07:16.930Z,62.30
2017-04-15T02:08:15.985Z,62.40
2017-04-15T02:09:15.807Z,62.50
2017-04-15T02:10:14.883Z,62.50
2017-04-15T02:11:13.934Z,62.50
2017-04-15T02:12:13.352Z,62.50
2017-04-15T02:13:12.398Z,62.50
2017-04-15T02:14:11.446Z,62.60
2017-04-15T02:15:10.533Z,62.60
2017-04-15T02:16:09.593Z,62.60
2017-04-15T02:17:09.407Z,62.60
2017-04-15T02:18:08.543Z,62.40
2017-04-15T02:19:07.610Z,62.50
2017-04-15T02:20:06.673Z,62.60
2017-04-15T02:21:05.743Z,62.60
2017-04-15T02:22:04.823Z,62.70
2017-04-15T02:23:04.798Z,62.50
2017-04-15T02:24:04.622Z,62.40
2017-04-15T02:25:03.782Z,62.50
2017-04-15T02:26:02.839Z,62.60
2017-04-15T02:27:01.910Z,62.40
2017-04-15T02:28:01.007Z,62.60
2017-04-15T02:29:00.094Z,62.50
2017-04-15T02:29:59.170Z,62.50
2017-04-15T02:30:58.228Z,62.60
2017-04-15T02:31:57.317Z,62.70
2017-04-15T02:32:56.391Z,62.80
2017-04-15T02:33:55.603Z,62.60
2017-04-15T02:34:54.707Z,62.40
2017-04-15T02:35:53.790Z,62.40
2017-04-15T02:36:52.874Z,62.40
2017-04-15T02:37:51.982Z,62.30
2017-04-15T02:38:51.046Z,62.90
2017-04-15T02:39:50.118Z,62.10
2017-04-15T02:40:49.186Z,62.20
2017-04-15T02:41:48.262Z,61.90
2017-04-15T02:42:47.655Z,61.80
2017-04-15T02:43:46.743Z,62.50
2017-04-15T02:44:45.949Z,61.90
2017-04-15T02:45:45.014Z,61.30
2017-04-15T02:46:44.099Z,61.30
2017-04-15T02:47:43.165Z,61.10
2017-04-15T02:48:42.986Z,61.00
2017-04-15T02:49:42.043Z,61.80
2017-04-15T02:50:41.110Z,60.80
2017-04-15T02:51:40.170Z,60.70
2017-04-15T02:52:39.226Z,60.60
2017-04-15T02:53:38.294Z,60.60
2017-04-15T02:54:38.081Z,60.50
2017-04-15T02:55:37.551Z,60.60
2017-04-15T02:56:36.619Z,60.40
2017-04-15T02:57:35.675Z,60.40
2017-04-15T02:58:34.730Z,60.40
2017-04-15T02:59:33.782Z,60.20
2017-04-15T03:00:32.876Z,60.20
2017-04-15T03:01:32.158Z,60.10
2017-04-15T03:02:31.224Z,60.00
2017-04-15T03:03:30.290Z,60.00
2017-04-15T03:04:29.358Z,59.90
2017-04-15T03:05:29.157Z,60.00
2017-04-15T03:06:28.243Z,60.00
2017-04-15T03:07:27.450Z,60.00
2017-04-15T03:08:26.509Z,59.90
2017-04-15T03:09:26.302Z,59.80
2017-04-15T03:10:25.351Z,60.20
2017-04-15T03:11:24.411Z,59.60
2017-04-15T03:12:23.470Z,59.60
2017-04-15T03:13:22.534Z,59.70
2017-04-15T03:14:21.618Z,59.60
2017-04-15T03:15:20.667Z,59.50
2017-04-15T03:16:19.713Z,59.50
2017-04-15T03:17:18.779Z,59.80
2017-04-15T03:18:18.613Z,59.20
2017-04-15T03:19:17.731Z,59.30
2017-04-15T03:20:16.806Z,59.30
2017-04-15T03:21:15.891Z,59.30
2017-04-15T03:22:14.982Z,59.20
2017-04-15T03:23:14.033Z,59.20
2017-04-15T03:24:13.371Z,59.20
2017-04-15T03:25:12.423Z,59.10
2017-04-15T03:26:11.483Z,59.10
2017-04-15T03:27:10.570Z,59.30
2017-04-15T03:28:09.615Z,59.20
2017-04-15T03:29:08.694Z,59.10
2017-04-15T03:30:07.827Z,59.00
2017-04-15T03:31:07.131Z,59.00
2017-04-15T03:32:06.219Z,58.90
2017-04-15T03:33:05.282Z,58.80
2017-04-15T03:34:04.373Z,59.40
2017-04-15T03:35:03.703Z,58.90
2017-04-15T03:36:02.767Z,58.80
2017-04-15T03:37:01.828Z,58.90
2017-04-15T03:38:01.379Z,59.10
2017-04-15T03:39:00.434Z,58.60
2017-04-15T03:39:59.491Z,58.50
2017-04-15T03:40:58.581Z,58.30
2017-04-15T03:41:57.695Z,58.20
2017-04-15T03:42:56.745Z,58.30
2017-04-15T03:43:56.546Z,58.30
2017-04-15T03:44:56.450Z,58.20
2017-04-15T03:45:55.668Z,58.50
2017-04-15T03:46:54.750Z,57.90
2017-04-15T03:47:53.838Z,57.90
2017-04-15T03:48:52.902Z,57.80
2017-04-15T03:49:51.967Z,57.70
2017-04-15T03:50:51.778Z,57.60
2017-04-15T03:51:50.893Z,57.50
2017-04-15T03:52:49.950Z,57.40
2017-04-15T03:53:49.022Z,57.50
2017-04-15T03:54:48.079Z,57.50
2017-04-15T03:55:47.134Z,57.40
2017-04-15T03:56:46.363Z,57.30
2017-04-15T03:57:45.435Z,57.40
2017-04-15T03:58:44.487Z,57.50
2017-04-15T03:59:43.546Z,57.30
2017-04-15T04:00:42.605Z,57.10
2017-04-15T04:01:41.669Z,57.10
2017-04-15T04:02:41.486Z,57.10
2017-04-15T04:03:40.566Z,57.10
2017-04-15T04:04:39.654Z,57.10
2017-04-15T04:05:38.723Z,57.10
2017-04-15T04:06:37.810Z,57.10
2017-04-15T04:07:37.407Z,57.10
2017-04-15T04:08:36.469Z,57.00
2017-04-15T04:09:35.526Z,56.90
2017-04-15T04:10:34.599Z,56.00
2017-04-15T04:11:34.401Z,55.90
2017-04-15T04:12:34.215Z,55.90
2017-04-15T04:13:33.329Z,55.80
2017-04-15T04:14:32.396Z,55.90
2017-04-15T04:15:31.477Z,55.80
2017-04-15T04:16:30.543Z,55.50
2017-04-15T04:17:29.627Z,55.40
2017-04-15T04:18:28.830Z,55.40
2017-04-15T04:19:27.903Z,55.20
2017-04-15T04:20:26.970Z,55.30
2017-04-15T04:21:26.034Z,55.20
2017-04-15T04:22:25.139Z,55.10
2017-04-15T04:23:24.203Z,55.10
2017-04-15T04:24:23.295Z,55.10
2017-04-15T04:25:22.350Z,55.10
2017-04-15T04:26:21.410Z,55.00
2017-04-15T04:27:20.458Z,54.90
2017-04-15T04:28:19.523Z,54.80
2017-04-15T04:29:18.766Z,54.90
2017-04-15T04:30:17.822Z,55.00
2017-04-15T04:31:16.885Z,54.90
2017-04-15T04:32:15.954Z,55.10
2017-04-15T04:33:15.043Z,55.40
2017-04-15T04:34:14.099Z,55.50
2017-04-15T04:35:13.211Z,55.50
2017-04-15T04:36:12.322Z,55.50
2017-04-15T04:37:11.381Z,55.50
2017-04-15T04:38:10.443Z,55.50
2017-04-15T04:39:09.539Z,55.80
2017-04-15T04:40:08.858Z,55.70
2017-04-15T04:41:07.926Z,56.40
2017-04-15T04:42:07.032Z,55.80
2017-04-15T04:43:06.095Z,55.80
2017-04-15T04:44:05.418Z,55.90
2017-04-15T04:45:04.470Z,56.30
2017-04-15T04:46:03.568Z,56.60
2017-04-15T04:47:02.642Z,56.60
2017-04-15T04:48:01.745Z,56.70
2017-04-15T04:49:00.829Z,56.70
2017-04-15T04:49:59.894Z,56.90
2017-04-15T04:50:59.102Z,56.90
2017-04-15T04:51:58.170Z,57.20
2017-04-15T04:52:57.227Z,57.30
2017-04-15T04:53:56.306Z,57.30
2017-04-15T04:54:55.462Z,57.40
2017-04-15T04:55:55.479Z,57.70
2017-04-15T04:56:55.318Z,57.30
2017-04-15T04:57:54.395Z,58.00
2017-04-15T04:58:53.481Z,58.60
2017-04-15T04:59:52.586Z,58.40
2017-04-15T05:00:52.394Z,58.40
2017-04-15T05:01:51.857Z,58.40
2017-04-15T05:02:50.962Z,58.40
2017-04-15T05:03:50.027Z,59.10
2017-04-15T05:04:49.092Z,58.80
2017-04-15T05:05:48.148Z,59.00
2017-04-15T05:06:47.218Z,59.00
2017-04-15T05:07:46.497Z,59.20
2017-04-15T05:08:45.564Z,59.40
2017-04-15T05:09:44.630Z,59.30
2017-04-15T05:10:43.714Z,59.40
2017-04-15T05:11:42.778Z,59.40
2017-04-15T05:12:41.847Z,59.40
2017-04-15T05:13:40.931Z,59.40
2017-04-15T05:14:40.105Z,59.60
2017-04-15T05:15:39.546Z,59.80
2017-04-15T05:16:38.603Z,59.80
2017-04-15T05:17:37.661Z,59.40
2017-04-15T05:18:37.059Z,59.70
2017-04-15T05:19:36.194Z,59.40
2017-04-15T05:20:35.250Z,59.90
2017-04-15T05:21:35.050Z,60.80
2017-04-15T05:22:34.182Z,60.30
2017-04-15T05:23:33.234Z,60.20
2017-04-15T05:24:32.326Z,60.70
2017-04-15T05:25:31.386Z,61.70
2017-04-15T05:26:30.453Z,59.80
2017-04-15T05:27:29.529Z,59.50
2017-04-15T05:28:28.597Z,59.60
2017-04-15T05:29:27.843Z,60.20
2017-04-15T05:30:27.637Z,60.10
2017-04-15T05:31:26.714Z,61.00
2017-04-15T05:32:25.786Z,60.90
2017-04-15T05:33:24.874Z,61.20
2017-04-15T05:34:23.933Z,61.10
2017-04-15T05:35:23.014Z,60.80
2017-04-15T05:36:22.110Z,61.30
2017-04-15T05:37:21.168Z,61.40
2017-04-15T05:38:20.242Z,61.60
2017-04-15T05:39:19.295Z,62.10
2017-04-15T05:40:19.262Z,62.00
2017-04-15T05:41:18.338Z,61.60
2017-04-15T05:42:17.407Z,61.10
2017-04-15T05:43:16.463Z,61.20
2017-04-15T05:44:16.306Z,61.60
2017-04-15T05:45:15.369Z,61.70
2017-04-15T05:46:14.451Z,61.60
2017-04-15T05:47:13.519Z,62.00
2017-04-15T05:48:12.594Z,61.90
2017-04-15T05:49:11.679Z,61.40
2017-04-15T05:50:10.754Z,61.30
2017-04-15T05:51:10.851Z,61.50
2017-04-15T05:52:09.946Z,62.10
2017-04-15T05:53:09.019Z,61.40
2017-04-15T05:54:08.112Z,61.40
2017-04-15T05:55:07.168Z,61.90
2017-04-15T05:56:06.243Z,61.60
2017-04-15T05:57:05.328Z,61.60
2017-04-15T05:58:04.386Z,61.40
2017-04-15T05:59:03.459Z,61.90
2017-04-15T06:00:02.542Z,61.90
2017-04-15T06:01:02.363Z,62.30
2017-04-15T06:02:08.239Z,62.70
2017-04-15T06:03:07.291Z,61.90
2017-04-15T06:04:06.348Z,61.10
2017-04-15T06:05:05.519Z,61.50
2017-04-15T06:06:04.603Z,61.70
2017-04-15T06:07:03.685Z,61.40
2017-04-15T06:08:03.041Z,61.00
2017-04-15T06:09:02.121Z,61.00
2017-04-15T06:10:01.188Z,61.00
2017-04-15T06:11:00.263Z,61.40
2017-04-15T06:12:00.304Z,61.00
2017-04-15T06:12:59.630Z,61.30
2017-04-15T06:13:58.682Z,61.40
2017-04-15T06:14:57.747Z,61.40
2017-04-15T06:15:57.138Z,61.30
2017-04-15T06:16:56.246Z,61.00
2017-04-15T06:17:55.315Z,61.40
2017-04-15T06:18:54.410Z,61.50
2017-04-15T06:19:53.477Z,62.20
2017-04-15T06:20:52.552Z,63.20
2017-04-15T06:21:52.362Z,62.30
2017-04-15T06:22:51.434Z,62.20
2017-04-15T06:23:50.816Z,61.50
2017-04-15T06:24:50.988Z,61.90
2017-04-15T06:25:50.063Z,61.80
2017-04-15T06:26:49.126Z,61.80
2017-04-15T06:27:48.194Z,62.40
2017-04-15T06:28:47.255Z,62.00
2017-04-15T06:29:46.508Z,62.30
2017-04-15T06:30:45.652Z,62.40
2017-04-15T06:31:44.721Z,62.70
2017-04-15T06:32:43.799Z,62.80
2017-04-15T06:33:42.906Z,62.30
2017-04-15T06:34:42.285Z,62.30
2017-04-15T06:35:41.366Z,61.90
2017-04-15T06:36:40.446Z,61.80
2017-04-15T06:37:39.515Z,62.00
2017-04-15T06:38:38.646Z,61.80
2017-04-15T06:39:37.743Z,62.70
2017-04-15T06:40:37.071Z,62.40
2017-04-15T06:41:36.161Z,61.90
2017-04-15T06:42:35.248Z,61.40
2017-04-15T06:43:34.338Z,61.40
2017-04-15T06:44:33.459Z,61.00
2017-04-15T06:45:33.271Z,61.30
2017-04-15T06:46:32.418Z,62.20
2017-04-15T06:47:31.687Z,61.70
2017-04-15T06:48:30.807Z,61.70
2017-04-15T06:49:30.661Z,61.00
2017-04-15T06:50:29.719Z,60.80
2017-04-15T06:51:29.374Z,61.60
2017-04-15T06:52:28.445Z,61.30
2017-04-15T06:53:27.518Z,61.60
2017-04-15T06:54:26.603Z,61.50
2017-04-15T06:55:25.666Z,61.20
2017-04-15T06:56:24.758Z,61.70
2017-04-15T06:57:23.876Z,62.30
2017-04-15T06:58:22.961Z,63.00
2017-04-15T06:59:22.072Z,62.80
2017-04-15T07:00:21.175Z,62.80
2017-04-15T07:01:20.254Z,63.50
2017-04-15T07:02:20.230Z,63.10
2017-04-15T07:03:19.332Z,63.60
2017-04-15T07:04:18.748Z,64.30
2017-04-15T07:05:18.261Z,63.40
2017-04-15T07:06:17.384Z,63.90
2017-04-15T07:07:16.459Z,64.20
2017-04-15T07:08:15.559Z,64.60
2017-04-15T07:09:14.650Z,64.30
2017-04-15T07:10:13.738Z,65.20
2017-04-15T07:11:13.569Z,65.20
2017-04-15T07:12:19.569Z,64.40
2017-04-15T07:13:18.855Z,64.10
2017-04-15T07:14:17.934Z,64.20
2017-04-15T07:15:17.042Z,64.30
2017-04-15T07:16:16.108Z,63.90
2017-04-15T07:17:15.191Z,63.20
2017-04-15T07:18:14.287Z,63.40
2017-04-15T07:19:13.443Z,63.30
2017-04-15T07:20:12.521Z,63.60
2017-04-15T07:21:11.611Z,63.80
2017-04-15T07:22:10.752Z,64.30
2017-04-15T07:23:09.843Z,64.90
2017-04-15T07:24:09.520Z,64.90
2017-04-15T07:25:08.631Z,65.40
2017-04-15T07:26:08.470Z,65.90
2017-04-15T07:27:07.554Z,66.00
2017-04-15T07:28:06.638Z,67.50
2017-04-15T07:29:05.736Z,67.70
2017-04-15T07:30:04.848Z,67.80
2017-04-15T07:31:04.176Z,66.90
2017-04-15T07:32:03.624Z,67.70
2017-04-15T07:33:02.750Z,66.70
2017-04-15T07:34:01.871Z,66.70
2017-04-15T07:35:01.395Z,66.60
2017-04-15T07:36:00.859Z,66.80
2017-04-15T07:36:59.957Z,67.00
2017-04-15T07:37:59.051Z,67.30
2017-04-15T07:38:58.906Z,66.90
2017-04-15T07:39:58.006Z,67.00
2017-04-15T07:40:57.339Z,66.90
2017-04-15T07:41:56.417Z,67.20
2017-04-15T07:42:55.511Z,68.40
2017-04-15T07:43:54.570Z,68.10
2017-04-15T07:44:53.678Z,67.80
2017-04-15T07:45:52.758Z,67.60
2017-04-15T07:46:51.860Z,67.40
2017-04-15T07:47:50.971Z,68.20
2017-04-15T07:48:50.772Z,68.80
2017-04-15T07:49:49.851Z,68.90
2017-04-15T07:50:49.666Z,69.20
2017-04-15T07:51:48.807Z,69.10
2017-04-15T07:52:47.922Z,69.40
2017-04-15T07:53:47.739Z,69.30
2017-04-15T07:54:46.822Z,69.70
2017-04-15T07:55:45.902Z,70.00
2017-04-15T07:56:45.218Z,70.70
2017-04-15T07:57:44.750Z,70.80
2017-04-15T07:58:43.832Z,71.10
2017-04-15T07:59:42.906Z,71.20
2017-04-15T08:00:42.023Z,71.70
2017-04-15T08:01:41.865Z,71.80
2017-04-15T08:02:40.935Z,72.10
2017-04-15T08:03:40.040Z,72.40
2017-04-15T08:04:39.145Z,72.20
2017-04-15T08:05:38.535Z,72.30
2017-04-15T08:06:37.611Z,72.40
2017-04-15T08:07:36.708Z,73.10
2017-04-15T08:08:36.028Z,73.10
2017-04-15T08:09:35.859Z,73.10
2017-04-15T08:10:34.942Z,72.60
2017-04-15T08:11:34.070Z,72.80
2017-04-15T08:12:33.154Z,72.40
2017-04-15T08:13:32.248Z,73.00
2017-04-15T08:14:31.347Z,73.50
2017-04-15T08:15:30.444Z,74.30
2017-04-15T08:16:29.534Z,74.30
2017-04-15T08:17:28.635Z,73.50
2017-04-15T08:18:27.771Z,73.20
2017-04-15T08:19:27.017Z,73.40
2017-04-15T08:20:26.110Z,72.70
2017-04-15T08:21:25.195Z,73.00
2017-04-15T08:22:24.282Z,73.90
2017-04-15T08:23:23.430Z,73.30
2017-04-15T08:24:22.519Z,73.30
2017-04-15T08:25:21.654Z,72.80
2017-04-15T08:26:20.758Z,72.20
2017-04-15T08:27:19.882Z,72.10
2017-04-15T08:28:19.735Z,72.60
2017-04-15T08:29:18.865Z,72.30
2017-04-15T08:30:18.875Z,73.60
2017-04-15T08:31:18.031Z,73.10
2017-04-15T08:32:17.124Z,73.40
2017-04-15T08:33:16.197Z,72.80
2017-04-15T08:34:15.290Z,72.60
2017-04-15T08:35:14.370Z,72.40
2017-04-15T08:36:13.763Z,71.80
2017-04-15T08:37:12.862Z,72.20
2017-04-15T08:38:11.961Z,72.70
2017-04-15T08:39:11.802Z,72.60
2017-04-15T08:40:10.911Z,72.40
2017-04-15T08:41:10.142Z,72.50
2017-04-15T08:42:09.978Z,72.00
2017-04-15T08:43:09.082Z,72.60
2017-04-15T08:44:08.164Z,72.70
2017-04-15T08:45:07.270Z,72.60
2017-04-15T08:46:06.355Z,71.60
2017-04-15T08:47:05.470Z,71.90
2017-04-15T08:48:05.311Z,71.70
2017-04-15T08:49:04.435Z,71.70
2017-04-15T08:50:03.594Z,71.40
2017-04-15T08:51:02.706Z,71.80
2017-04-15T08:52:01.950Z,71.70
2017-04-15T08:53:01.042Z,71.70
2017-04-15T08:54:00.131Z,72.00
2017-04-15T08:54:59.250Z,71.30
2017-04-15T08:55:58.359Z,71.00
2017-04-15T08:56:57.451Z,71.20
2017-04-15T08:57:56.895Z,71.30
2017-04-15T08:58:55.985Z,70.90
2017-04-15T08:59:55.083Z,71.30
2017-04-15T09:00:54.169Z,71.30
2017-04-15T09:01:53.255Z,71.10
2017-04-15T09:02:52.514Z,71.30
2017-04-15T09:03:51.632Z,71.50
2017-04-15T09:04:50.702Z,71.50
2017-04-15T09:05:49.783Z,71.60
2017-04-15T09:06:48.870Z,71.80
2017-04-15T09:07:47.948Z,71.80
2017-04-15T09:08:47.063Z,71.60
2017-04-15T09:09:46.174Z,71.40
2017-04-15T09:10:45.570Z,71.80
2017-04-15T09:11:44.698Z,71.70
2017-04-15T09:12:43.787Z,71.70
2017-04-15T09:13:43.096Z,71.40
2017-04-15T09:14:42.210Z,71.90
2017-04-15T09:15:42.141Z,72.00
2017-04-15T09:16:41.240Z,71.50
2017-04-15T09:17:40.619Z,70.90
2017-04-15T09:18:39.733Z,70.80
2017-04-15T09:19:38.844Z,70.80
2017-04-15T09:20:37.951Z,70.60
2017-04-15T09:21:37.798Z,70.90
2017-04-15T09:22:36.897Z,71.00
2017-04-15T09:23:35.978Z,70.70
2017-04-15T09:24:35.231Z,70.60
2017-04-15T09:25:34.338Z,71.00
2017-04-15T09:26:33.460Z,70.80
2017-04-15T09:27:32.559Z,71.00
2017-04-15T09:28:32.717Z,71.10
2017-04-15T09:29:31.822Z,70.10
2017-04-15T09:30:31.195Z,70.20
2017-04-15T09:31:30.303Z,70.40
2017-04-15T09:32:29.507Z,70.10
2017-04-15T09:33:28.594Z,70.30
2017-04-15T09:34:27.695Z,70.30
2017-04-15T09:35:27.295Z,70.00
2017-04-15T09:36:26.421Z,70.10
2017-04-15T09:37:25.527Z,69.30
2017-04-15T09:38:24.615Z,69.10
2017-04-15T09:39:23.704Z,69.70
2017-04-15T09:40:22.799Z,69.60
2017-04-15T09:41:22.030Z,69.30
2017-04-15T09:42:21.114Z,70.10
2017-04-15T09:43:20.218Z,69.70
2017-04-15T09:44:19.331Z,69.10
2017-04-15T09:45:18.418Z,69.00
2017-04-15T09:46:17.550Z,68.70
2017-04-15T09:47:16.794Z,68.60
2017-04-15T09:48:15.867Z,68.70
2017-04-15T09:49:14.960Z,68.20
2017-04-15T09:50:14.079Z,67.70
2017-04-15T09:51:13.942Z,67.10
2017-04-15T09:52:13.063Z,66.40
2017-04-15T09:53:12.152Z,65.80
2017-04-15T09:54:11.230Z,65.10
2017-04-15T09:55:10.317Z,64.40
2017-04-15T09:56:09.453Z,64.20
2017-04-15T09:57:08.578Z,64.00
2017-04-15T09:58:07.671Z,64.30
2017-04-15T09:59:06.783Z,63.70
2017-04-15T10:00:05.893Z,63.80
2017-04-15T10:01:05.135Z,63.20
2017-04-15T10:02:04.243Z,62.80
2017-04-15T10:03:03.316Z,61.90
2017-04-15T10:04:02.559Z,62.50
2017-04-15T10:05:01.670Z,62.40
2017-04-15T10:06:00.748Z,61.60
2017-04-15T10:06:59.822Z,62.20
2017-04-15T10:07:58.909Z,62.10
2017-04-15T10:08:57.979Z,61.50
2017-04-15T10:09:57.846Z,60.70
2017-04-15T10:10:56.934Z,61.60
2017-04-15T10:11:56.026Z,62.20
2017-04-15T10:12:55.320Z,62.50
2017-04-15T10:13:54.397Z,61.60
2017-04-15T10:14:53.636Z,60.30
2017-04-15T10:15:52.722Z,60.10
2017-04-15T10:16:51.822Z,60.70
2017-04-15T10:17:50.948Z,60.80
2017-04-15T10:18:50.058Z,61.10
2017-04-15T10:20:55.831Z,62.60
2017-04-15T10:21:55.163Z,62.30
2017-04-15T10:22:54.256Z,60.90
2017-04-15T10:23:53.370Z,60.40
2017-04-15T10:24:52.448Z,60.70
2017-04-15T10:25:51.960Z,60.70
2017-04-15T10:26:51.103Z,60.20
2017-04-15T10:27:50.304Z,60.00
2017-04-15T10:28:49.399Z,60.20
2017-04-15T10:29:48.511Z,60.80
2017-04-15T10:30:47.584Z,60.80
2017-04-15T10:31:46.668Z,60.00
2017-04-15T10:32:45.754Z,59.70
2017-04-15T10:33:44.839Z,59.30
2017-04-15T10:34:43.924Z,59.30
2017-04-15T10:35:43.006Z,59.10
2017-04-15T10:36:42.970Z,59.40
2017-04-15T10:37:42.051Z,59.30
2017-04-15T10:38:41.139Z,59.30
2017-04-15T10:39:40.203Z,59.20
2017-04-15T10:40:40.038Z,59.10
2017-04-15T10:41:39.110Z,58.90
2017-04-15T10:42:38.206Z,59.10
2017-04-15T10:43:37.286Z,59.40
2017-04-15T10:44:36.370Z,59.90
2017-04-15T10:45:35.462Z,60.90
2017-04-15T10:46:34.526Z,59.30
2017-04-15T10:47:34.285Z,58.30
2017-04-15T10:48:33.335Z,58.40
2017-04-15T10:49:32.674Z,57.30
2017-04-15T10:50:32.010Z,55.90
2017-04-15T10:51:31.086Z,55.50
2017-04-15T10:52:30.150Z,55.80
2017-04-15T10:53:29.987Z,56.30
2017-04-15T10:54:29.061Z,56.20
2017-04-15T10:55:28.458Z,56.20
2017-04-15T10:56:27.562Z,56.60
2017-04-15T10:57:26.642Z,56.90
2017-04-15T10:58:25.955Z,57.20
2017-04-15T10:59:25.036Z,57.40
2017-04-15T11:00:24.090Z,58.10
2017-04-15T11:01:23.154Z,57.30
2017-04-15T11:02:22.262Z,57.80
2017-04-15T11:03:21.376Z,56.80
2017-04-15T11:04:20.511Z,56.50
2017-04-15T11:05:19.572Z,56.80
2017-04-15T11:06:18.635Z,56.70
2017-04-15T11:07:17.983Z,58.70
2017-04-15T11:08:18.184Z,59.90
2017-04-15T11:09:17.424Z,60.90
2017-04-15T11:10:16.529Z,62.10
2017-04-15T11:11:15.607Z,62.80
2017-04-15T11:12:14.789Z,63.40
2017-04-15T11:13:13.878Z,65.70
2017-04-15T11:14:12.994Z,65.30
2017-04-15T11:15:12.962Z,66.00
2017-04-15T11:16:12.053Z,66.20
2017-04-15T11:17:11.154Z,67.20
2017-04-15T11:18:10.222Z,68.60
2017-04-15T11:19:09.311Z,70.00
2017-04-15T11:20:08.411Z,69.20
2017-04-15T11:21:07.496Z,68.90
2017-04-15T11:22:06.666Z,68.90
2017-04-15T11:23:05.750Z,68.60
2017-04-15T11:24:04.822Z,68.70
2017-04-15T11:25:03.902Z,69.10
2017-04-15T11:26:02.994Z,69.60
2017-04-15T11:27:02.091Z,69.30
2017-04-15T11:28:01.155Z,68.40
2017-04-15T11:29:00.214Z,68.80
2017-04-15T11:29:59.282Z,68.70
2017-04-15T11:30:58.422Z,68.20
2017-04-15T11:31:57.542Z,68.60
2017-04-15T11:32:57.387Z,67.80
2017-04-15T11:33:56.458Z,67.10
2017-04-15T11:34:55.532Z,65.90
2017-04-15T11:35:54.612Z,66.40
2017-04-15T11:36:53.699Z,66.10
2017-04-15T11:37:52.914Z,63.90
2017-04-15T11:38:52.003Z,63.70
2017-04-15T11:39:51.083Z,64.40
2017-04-15T11:40:50.158Z,62.90
2017-04-15T11:41:49.232Z,62.30
2017-04-15T11:42:48.435Z,63.90
2017-04-15T11:43:47.556Z,63.80
2017-04-15T11:44:46.668Z,61.70
2017-04-15T11:45:46.490Z,63.10
2017-04-15T11:46:45.554Z,60.50
2017-04-15T11:47:44.640Z,59.20
2017-04-15T11:48:44.082Z,60.00
2017-04-15T11:49:43.170Z,59.20
2017-04-15T11:50:42.226Z,58.60
2017-04-15T11:51:41.290Z,57.90
2017-04-15T11:52:41.230Z,57.40
2017-04-15T11:53:40.307Z,57.40
2017-04-15T11:54:39.414Z,58.50
2017-04-15T11:55:38.486Z,57.90
2017-04-15T11:56:37.754Z,57.60
2017-04-15T11:57:36.896Z,56.80
2017-04-15T11:58:35.976Z,56.80
2017-04-15T11:59:35.354Z,57.00
2017-04-15T12:00:34.454Z,56.80
2017-04-15T12:01:33.526Z,57.30
2017-04-15T12:02:32.590Z,56.50
2017-04-15T12:03:31.715Z,55.40
2017-04-15T12:04:30.793Z,55.00
2017-04-15T12:05:30.184Z,55.20
2017-04-15T12:06:29.254Z,55.30
2017-04-15T12:07:28.320Z,54.00
2017-04-15T12:08:27.396Z,52.50
2017-04-15T12:09:26.465Z,53.30
2017-04-15T12:10:26.279Z,53.30
2017-04-15T12:11:25.535Z,53.10
2017-04-15T12:12:24.610Z,51.80
2017-04-15T12:13:23.732Z,51.20
2017-04-15T12:14:22.809Z,51.60
2017-04-15T12:15:21.879Z,52.00
2017-04-15T12:16:21.702Z,52.30
2017-04-15T12:17:20.331Z,52.20
2017-04-15T12:18:19.679Z,51.80
2017-04-15T12:19:18.806Z,51.70
2017-04-15T12:20:17.902Z,50.60
2017-04-15T12:21:16.979Z,50.00
2017-04-15T12:22:16.066Z,49.70
2017-04-15T12:23:15.197Z,48.00
2017-04-15T12:24:14.690Z,46.60
2017-04-15T12:25:13.803Z,46.60
2017-04-15T12:26:12.874Z,47.50
2017-04-15T12:27:11.958Z,47.00
2017-04-15T12:28:11.029Z,46.30
2017-04-15T12:29:10.150Z,45.40
2017-04-15T12:30:09.961Z,44.10
2017-04-15T12:31:09.043Z,44.00
2017-04-15T12:32:08.158Z,44.40
2017-04-15T12:33:07.238Z,44.10
2017-04-15T12:34:06.330Z,44.70
2017-04-15T12:35:05.479Z,44.20
2017-04-15T12:36:05.303Z,43.50
2017-04-15T12:37:04.392Z,44.00
2017-04-15T12:38:03.478Z,44.70
2017-04-15T12:39:02.633Z,44.40
2017-04-15T12:40:01.691Z,44.80
2017-04-15T12:41:00.886Z,44.40
2017-04-15T12:41:59.967Z,44.30
2017-04-15T12:42:59.044Z,43.90